createdAt,value
2022-08-09T00:01:10.646Z,102933.66
2022-08-09T00:04:06.003Z,102933.66
2022-08-09T00:06:29.267Z,102928.72
2022-08-09T00:08:58.599Z,102925.63
2022-08-09T00:11:27.823Z,102919.59
2022-08-09T00:14:11.672Z,102922.19
2022-08-09T00:16:44.523Z,102921.38
2022-08-09T00:19:14.003Z,102924.97
2022-08-09T00:21:56.169Z,102926.63
2022-08-09T00:24:24.385Z,102923.31
2022-08-09T00:26:50.911Z,102923.31
2022-08-09T00:29:39.215Z,102928.56
2022-08-09T00:32:04.026Z,102925.13
2022-08-09T00:34:32.664Z,102930.81
2022-08-09T00:37:00.264Z,102925.75
2022-08-09T00:40:14.087Z,102923.28
2022-08-09T00:44:19.305Z,102920.69
2022-08-09T00:44:59.674Z,102913.78
2022-08-09T00:47:33.145Z,102920.19
2022-08-09T00:50:02.854Z,102917.88
2022-08-09T00:52:31.091Z,102925.88
2022-08-09T00:55:00.410Z,102916.06
2022-08-09T00:57:34.343Z,102924.06
2022-08-09T01:00:20.413Z,102923.25
2022-08-09T01:02:53.647Z,102923.56
2022-08-09T01:05:53.084Z,102921.41
2022-08-09T01:08:30.715Z,102923.34
2022-08-09T01:11:17.702Z,102924.47
2022-08-09T01:13:59.841Z,102925.78
2022-08-09T01:16:35.131Z,102919.91
2022-08-09T01:19:42.502Z,102925.59
2022-08-09T01:22:30.809Z,102923.28
2022-08-09T01:25:29.428Z,102926.22
2022-08-09T01:27:59.604Z,102932.72
2022-08-09T01:30:35.716Z,102937.91
2022-08-09T01:33:18.148Z,102935.41
2022-08-09T01:35:59.207Z,102932.78
2022-08-09T01:38:29.858Z,102933.78
2022-08-09T01:41:13.384Z,102936.38
2022-08-09T01:43:51.161Z,102937.34
2022-08-09T01:46:32.460Z,102932.94
2022-08-09T01:49:10.367Z,102935.72
2022-08-09T01:51:44.317Z,102931.78
2022-08-09T01:54:13.726Z,102935.34
2022-08-09T01:56:51.504Z,102934.53
2022-08-09T01:59:21.307Z,102934.69
2022-08-09T02:01:58.113Z,102936.66
2022-08-09T02:04:28.390Z,102931.44
2022-08-09T02:07:18.323Z,102929.78
2022-08-09T02:10:11.000Z,102939.88
2022-08-09T02:12:39.286Z,102935.91
2022-08-09T02:15:08.143Z,102934.59
2022-08-09T02:18:01.271Z,102934.59
2022-08-09T02:20:32.857Z,102938.00
2022-08-09T02:23:14.678Z,102941.75
2022-08-09T02:25:52.560Z,102944.50
2022-08-09T02:28:40.523Z,102940.41
2022-08-09T02:31:18.511Z,102947.91
2022-08-09T02:34:06.463Z,102945.59
2022-08-09T02:36:44.543Z,102948.66
2022-08-09T02:39:33.220Z,102943.72
2022-08-09T02:42:11.607Z,102944.53
2022-08-09T02:44:41.393Z,102945.53
2022-08-09T02:47:12.100Z,102943.06
2022-08-09T02:50:02.080Z,102935.38
2022-08-09T02:52:40.285Z,102939.94
2022-08-09T02:55:21.059Z,102931.13
2022-08-09T02:58:00.476Z,102928.28
2022-08-09T03:00:47.735Z,102925.47
2022-08-09T03:03:37.271Z,102928.53
2022-08-09T03:06:14.806Z,102921.13
2022-08-09T03:08:46.138Z,102920.63
2022-08-09T03:12:06.671Z,102926.81
2022-08-09T03:14:07.751Z,102926.56
2022-08-09T03:16:41.732Z,102924.25
2022-08-09T03:19:14.528Z,102925.59
2022-08-09T03:21:57.830Z,102923.78
2022-08-09T03:24:31.479Z,102930.66
2022-08-09T03:27:13.483Z,102922.19
2022-08-09T03:29:57.680Z,102922.13
2022-08-09T03:32:30.947Z,102917.34
2022-08-09T03:34:59.284Z,102923.81
2022-08-09T03:37:55.774Z,102923.03
2022-08-09T03:40:13.466Z,102917.94
2022-08-09T03:42:44.432Z,102926.19
2022-08-09T03:45:11.839Z,102927.31
2022-08-09T03:47:41.831Z,102925.97
2022-08-09T03:50:12.112Z,102925.72
2022-08-09T03:52:43.714Z,102924.22
2022-08-09T03:55:14.403Z,102922.56
2022-08-09T03:57:53.554Z,102930.25
2022-08-09T04:00:29.116Z,102933.13
2022-08-09T04:02:57.446Z,102933.13
2022-08-09T04:05:27.619Z,102937.25
2022-08-09T04:07:57.275Z,102934.38
2022-08-09T04:10:29.519Z,102939.97
2022-08-09T04:13:00.705Z,102942.28
2022-08-09T04:15:42.637Z,102940.34
2022-08-09T04:18:18.083Z,102950.50
2022-08-09T04:20:50.610Z,102942.66
2022-08-09T04:23:18.035Z,102944.19
2022-08-09T04:25:52.153Z,102948.25
2022-08-09T04:28:33.367Z,102964.28
2022-08-09T04:31:05.738Z,102951.97
2022-08-09T04:33:52.977Z,102952.13
2022-08-09T04:36:25.934Z,102967.06
2022-08-09T04:39:00.534Z,102966.28
2022-08-09T04:41:32.125Z,102966.13
2022-08-09T04:44:05.829Z,102968.41
2022-08-09T04:46:56.911Z,102965.06
2022-08-09T04:49:30.236Z,102967.22
2022-08-09T04:52:07.383Z,102973.25
2022-08-09T04:54:36.060Z,102966.50
2022-08-09T04:57:03.762Z,102970.34
2022-08-09T04:59:30.651Z,102976.13
2022-08-09T05:01:57.223Z,102963.41
2022-08-09T05:04:23.857Z,102966.94
2022-08-09T05:06:57.801Z,102969.44
2022-08-09T05:09:24.578Z,102972.31
2022-08-09T05:11:51.484Z,102974.44
2022-08-09T05:14:18.538Z,102969.53
2022-08-09T05:16:58.967Z,102972.25
2022-08-09T05:19:31.891Z,102968.00
2022-08-09T05:23:50.605Z,102973.50
2022-08-09T05:25:00.854Z,102961.56
2022-08-09T05:27:27.835Z,102973.59
2022-08-09T05:29:56.710Z,102976.84
2022-08-09T05:32:23.583Z,102978.50
2022-08-09T05:34:50.273Z,102973.13
2022-08-09T05:37:18.179Z,102978.34
2022-08-09T05:39:44.856Z,102976.75
2022-08-09T05:42:20.555Z,102983.91
2022-08-09T05:44:53.651Z,102984.19
2022-08-09T05:47:22.883Z,102993.00
2022-08-09T05:50:30.732Z,102988.34
2022-08-09T05:52:42.008Z,102996.25
2022-08-09T05:55:21.286Z,103003.44
2022-08-09T05:57:51.145Z,103000.81
2022-08-09T06:00:23.251Z,103004.03
2022-08-09T06:02:54.346Z,102994.88
2022-08-09T06:05:30.938Z,102997.00
2022-08-09T06:08:11.122Z,103002.66
2022-08-09T06:10:38.128Z,102998.97
2022-08-09T06:13:12.170Z,102997.44
2022-08-09T06:15:44.612Z,102994.66
2022-08-09T06:18:13.618Z,102999.59
2022-08-09T06:20:42.608Z,103005.91
2022-08-09T06:23:11.994Z,103013.16
2022-08-09T06:25:38.762Z,103022.16
2022-08-09T06:28:07.589Z,103012.00
2022-08-09T06:30:34.449Z,103008.56
2022-08-09T06:33:13.263Z,103007.94
2022-08-09T06:35:57.361Z,103012.63
2022-08-09T06:38:36.336Z,103005.00
2022-08-09T06:41:13.503Z,103012.97
2022-08-09T06:43:46.446Z,103010.63
2022-08-09T06:46:39.134Z,103027.41
2022-08-09T06:49:00.390Z,103026.38
2022-08-09T06:51:27.081Z,103033.47
2022-08-09T06:53:55.471Z,103036.19
2022-08-09T06:56:30.698Z,103044.94
2022-08-09T07:00:56.455Z,103039.38
2022-08-09T07:01:54.073Z,103032.16
2022-08-09T07:04:25.027Z,103040.47
2022-08-09T07:07:00.198Z,103045.69
2022-08-09T07:09:54.233Z,103041.66
2022-08-09T07:12:17.951Z,103041.25
2022-08-09T07:14:51.278Z,103038.56
2022-08-09T07:17:21.595Z,103042.03
2022-08-09T07:19:50.922Z,103028.13
2022-08-09T07:22:34.795Z,103036.25
2022-08-09T07:25:05.346Z,103042.59
2022-08-09T07:27:43.227Z,103029.91
2022-08-09T07:30:21.787Z,103031.97
2022-08-09T07:32:51.528Z,103035.16
2022-08-09T07:35:19.145Z,103041.47
2022-08-09T07:37:46.236Z,103033.50
2022-08-09T07:40:18.500Z,103035.13
2022-08-09T07:42:56.952Z,103032.59
2022-08-09T07:45:40.393Z,103027.91
2022-08-09T07:48:28.498Z,103037.69
2022-08-09T07:51:03.025Z,103029.16
2022-08-09T07:54:04.916Z,103023.41
2022-08-09T07:56:27.010Z,103027.38
2022-08-09T07:58:55.393Z,103027.38
2022-08-09T08:01:28.471Z,103023.16
2022-08-09T08:04:00.451Z,103020.13
2022-08-09T08:06:32.073Z,103016.25
2022-08-09T08:09:04.499Z,103027.13
2022-08-09T08:12:10.416Z,103018.41
2022-08-09T08:14:18.397Z,103022.44
2022-08-09T08:17:00.620Z,103024.47
2022-08-09T08:19:34.347Z,103036.50
2022-08-09T08:22:01.695Z,103034.06
2022-08-09T08:24:34.144Z,103040.16
2022-08-09T08:27:16.501Z,103042.63
2022-08-09T08:29:48.407Z,103052.38
2022-08-09T08:32:18.963Z,103042.78
2022-08-09T08:34:51.945Z,103032.84
2022-08-09T08:37:21.792Z,103041.19
2022-08-09T08:39:51.664Z,103038.97
2022-08-09T08:42:18.356Z,103043.00
2022-08-09T08:44:57.648Z,103047.06
2022-08-09T08:47:29.381Z,103040.72
2022-08-09T08:49:58.332Z,103046.22
2022-08-09T08:52:58.267Z,103043.31
2022-08-09T08:55:19.025Z,103042.56
2022-08-09T08:57:57.388Z,103045.81
2022-08-09T09:00:30.194Z,103038.88
2022-08-09T09:03:08.888Z,103041.59
2022-08-09T09:05:58.222Z,103033.16
2022-08-09T09:08:30.847Z,103037.22
2022-08-09T09:11:02.679Z,103043.56
2022-08-09T09:13:41.745Z,103041.25
2022-08-09T09:16:18.413Z,103031.00
2022-08-09T09:19:15.667Z,103033.72
2022-08-09T09:22:15.739Z,103035.75
2022-08-09T09:24:59.103Z,103041.13
2022-08-09T09:28:05.507Z,103046.00
2022-08-09T09:30:47.388Z,103047.19
2022-08-09T09:33:16.277Z,103035.81
2022-08-09T09:36:02.410Z,103033.75
2022-08-09T09:38:42.764Z,103034.56
2022-08-09T09:41:10.691Z,103033.59
2022-08-09T09:44:10.162Z,103041.66
2022-08-09T09:46:41.753Z,103037.16
2022-08-09T09:49:11.672Z,103035.50
2022-08-09T09:51:40.569Z,103036.59
2022-08-09T09:54:21.102Z,103029.81
2022-08-09T09:58:00.280Z,103027.09
2022-08-09T09:59:36.073Z,103033.59
2022-08-09T10:02:02.598Z,103031.88
2022-08-09T10:04:30.875Z,103043.50
2022-08-09T10:06:58.406Z,103034.94
2022-08-09T10:09:48.458Z,103035.31
2022-08-09T10:12:34.678Z,103029.16
2022-08-09T10:15:17.620Z,103030.13
2022-08-09T10:17:56.362Z,103032.16
2022-08-09T10:20:33.095Z,103029.50
2022-08-09T10:23:17.187Z,103036.47
2022-08-09T10:26:06.123Z,103034.13
2022-08-09T10:28:34.226Z,103022.69
2022-08-09T10:34:10.159Z,103018.97
2022-08-09T10:36:36.400Z,103014.75
2022-08-09T10:39:03.645Z,103014.00
2022-08-09T10:41:40.459Z,103008.56
2022-08-09T10:46:55.672Z,103006.88
2022-08-09T10:49:51.720Z,103002.38
2022-08-09T10:52:46.371Z,102994.28
2022-08-09T10:55:24.236Z,103001.03
2022-08-09T10:57:55.448Z,102998.94
2022-08-09T11:00:30.989Z,102997.22
2022-08-09T11:03:10.914Z,102999.94
2022-08-09T11:06:15.973Z,102997.03
2022-08-09T11:08:47.992Z,102995.47
2022-08-09T11:11:20.097Z,102990.75
2022-08-09T11:13:53.677Z,102995.69
2022-08-09T11:16:37.018Z,102990.94
2022-08-09T11:19:09.788Z,102991.09
2022-08-09T11:22:04.905Z,102986.34
2022-08-09T11:24:57.934Z,102983.19
2022-08-09T11:28:05.274Z,102979.97
2022-08-09T11:30:36.205Z,102984.22
2022-08-09T11:33:16.637Z,102978.56
2022-08-09T11:35:49.810Z,102977.88
2022-08-09T11:38:32.196Z,102974.84
2022-08-09T11:41:05.377Z,102963.03
2022-08-09T11:43:39.605Z,102971.16
2022-08-09T11:46:06.652Z,102972.66
2022-08-09T11:48:50.805Z,102968.25
2022-08-09T11:52:49.292Z,102962.22
2022-08-09T11:54:27.754Z,102969.06
2022-08-09T11:57:56.399Z,102965.22
2022-08-09T12:00:24.676Z,102964.19
2022-08-09T12:02:54.608Z,102963.16
2022-08-09T12:05:22.837Z,102960.06
2022-08-09T12:07:50.065Z,102958.50
2022-08-09T12:10:38.416Z,102957.47
2022-08-09T12:14:07.571Z,102956.22
2022-08-09T12:16:02.426Z,102949.97
2022-08-09T12:18:33.508Z,102951.47
2022-08-09T12:21:02.603Z,102945.13
2022-08-09T12:23:58.005Z,102943.59
2022-08-09T12:26:19.583Z,102929.50
2022-08-09T12:29:10.809Z,102937.00
2022-08-09T12:32:02.653Z,102940.91
2022-08-09T12:34:41.136Z,102941.66
2022-08-09T12:37:21.549Z,102936.47
2022-08-09T12:40:08.558Z,102934.38
2022-08-09T12:42:36.238Z,102929.53
2022-08-09T12:45:32.373Z,102921.28
2022-08-09T12:47:52.495Z,102932.13
2022-08-09T12:50:19.862Z,102930.19
2022-08-09T12:53:17.441Z,102925.19
2022-08-09T12:56:12.574Z,102931.72
2022-08-09T12:58:24.418Z,102929.59
2022-08-09T13:00:55.161Z,102927.50
2022-08-09T13:03:53.043Z,102932.88
2022-08-09T13:06:34.539Z,102923.47
2022-08-09T13:09:22.826Z,102924.34
2022-08-09T13:11:52.699Z,102929.19
2022-08-09T13:14:43.786Z,102928.56
2022-08-09T13:17:16.363Z,102928.91
2022-08-09T13:20:14.341Z,102923.34
2022-08-09T13:23:05.740Z,102919.63
2022-08-09T13:25:52.944Z,102918.38
2022-08-09T13:28:34.486Z,102917.63
2022-08-09T13:32:14.963Z,102916.56
2022-08-09T13:33:54.387Z,102915.22
2022-08-09T13:36:40.188Z,102915.16
2022-08-09T13:41:17.172Z,102919.91
2022-08-09T13:42:12.029Z,102904.91
2022-08-09T13:44:42.679Z,102903.09
2022-08-09T13:47:27.673Z,102889.06
2022-08-09T13:50:18.230Z,102898.19
2022-08-09T13:52:55.958Z,102884.44
2022-08-09T13:55:22.780Z,102878.50
2022-08-09T13:57:56.332Z,102889.66
2022-08-09T14:00:28.345Z,102883.31
2022-08-09T14:03:16.958Z,102887.94
2022-08-09T14:05:59.170Z,102890.25
2022-08-09T14:08:29.213Z,102894.84
2022-08-09T14:10:57.077Z,102898.41
2022-08-09T14:14:16.418Z,102887.81
2022-08-09T14:16:14.004Z,102889.00
2022-08-09T14:18:43.189Z,102897.94
2022-08-09T14:21:17.249Z,102890.41
2022-08-09T14:23:53.738Z,102891.81
2022-08-09T14:26:21.593Z,102890.19
2022-08-09T14:28:47.979Z,102886.34
2022-08-09T14:31:14.528Z,102891.34
2022-08-09T14:33:41.888Z,102888.84
2022-08-09T14:36:20.341Z,102880.22
2022-08-09T14:38:52.818Z,102875.53
2022-08-09T14:41:34.825Z,102874.03
2022-08-09T14:44:07.474Z,102874.25
2022-08-09T14:46:54.919Z,102889.09
2022-08-09T14:49:25.472Z,102875.59
2022-08-09T14:51:53.287Z,102870.13
2022-08-09T14:54:28.043Z,102871.63
2022-08-09T14:56:57.886Z,102871.91
2022-08-09T14:59:24.760Z,102876.06
2022-08-09T15:01:53.499Z,102875.75
2022-08-09T15:04:20.040Z,102864.97
2022-08-09T15:06:50.468Z,102870.97
2022-08-09T15:10:03.516Z,102866.13
2022-08-09T15:12:08.053Z,102874.94
2022-08-09T15:14:38.562Z,102855.50
2022-08-09T15:17:09.095Z,102867.50
2022-08-09T15:19:36.490Z,102857.97
2022-08-09T15:22:03.384Z,102860.94
2022-08-09T15:24:29.919Z,102853.03
2022-08-09T15:26:56.443Z,102854.94
2022-08-09T15:30:56.975Z,102852.25
2022-08-09T15:32:29.134Z,102851.06
2022-08-09T15:34:59.705Z,102848.19
2022-08-09T15:37:56.171Z,102845.19
2022-08-09T15:40:25.374Z,102841.00
2022-08-09T15:42:59.057Z,102847.38
2022-08-09T15:45:29.425Z,102846.66
2022-08-09T15:48:05.619Z,102841.28
2022-08-09T15:50:39.185Z,102838.28
2022-08-09T15:53:18.838Z,102840.25
2022-08-09T15:56:04.654Z,102837.44
2022-08-09T15:58:39.383Z,102839.84
2022-08-09T16:01:06.140Z,102831.22
2022-08-09T16:03:38.418Z,102838.34
2022-08-09T16:06:29.274Z,102829.03
2022-08-09T16:09:01.195Z,102824.97
2022-08-09T16:11:33.099Z,102826.50
2022-08-09T16:14:06.538Z,102819.81
2022-08-09T16:16:37.075Z,102826.69
2022-08-09T16:19:08.775Z,102828.13
2022-08-09T16:21:40.182Z,102831.16
2022-08-09T16:24:20.119Z,102824.22
2022-08-09T16:26:59.299Z,102820.13
2022-08-09T16:29:37.299Z,102829.88
2022-08-09T16:32:18.159Z,102821.91
2022-08-09T16:34:56.417Z,102820.41
2022-08-09T16:37:55.830Z,102819.81
2022-08-09T16:40:13.369Z,102814.72
2022-08-09T16:42:45.555Z,102823.31
2022-08-09T16:45:17.286Z,102817.19
2022-08-09T16:48:41.087Z,102820.19
2022-08-09T16:50:33.945Z,102818.00
2022-08-09T16:53:02.115Z,102823.69
2022-08-09T16:55:44.331Z,102827.59
2022-08-09T16:58:17.026Z,102824.38
2022-08-09T17:00:43.719Z,102828.69
2022-08-09T17:03:21.292Z,102817.88
2022-08-09T17:06:08.591Z,102821.13
2022-08-09T17:09:02.967Z,102823.94
2022-08-09T17:11:37.684Z,102820.34
2022-08-09T17:14:26.057Z,102829.13
2022-08-09T17:17:00.115Z,102831.19
2022-08-09T17:19:47.607Z,102834.19
2022-08-09T17:22:24.715Z,102831.03
2022-08-09T17:24:56.092Z,102832.75
2022-08-09T17:27:31.182Z,102840.34
2022-08-09T17:29:57.657Z,102826.59
2022-08-09T17:32:37.425Z,102843.44
2022-08-09T17:35:12.119Z,102842.06
2022-08-09T17:38:11.896Z,102847.47
2022-08-09T17:40:28.147Z,102837.97
2022-08-09T17:42:59.220Z,102834.94
2022-08-09T17:45:45.511Z,102840.56
2022-08-09T17:48:14.806Z,102837.06
2022-08-09T17:50:42.107Z,102838.69
2022-08-09T17:53:22.697Z,102834.03
2022-08-09T17:55:54.120Z,102842.44
2022-08-09T17:58:26.675Z,102839.78
2022-08-09T18:00:56.379Z,102838.78
2022-08-09T18:03:24.623Z,102835.22
2022-08-09T18:05:52.998Z,102842.28
2022-08-09T18:08:21.988Z,102847.88
2022-08-09T18:11:02.080Z,102841.16
2022-08-09T18:13:39.731Z,102847.88
2022-08-09T18:16:30.160Z,102851.13
2022-08-09T18:19:03.451Z,102855.53
2022-08-09T18:21:31.743Z,102859.06
2022-08-09T18:24:09.788Z,102854.41
2022-08-09T18:26:46.789Z,102857.00
2022-08-09T18:30:40.182Z,102856.66
2022-08-09T18:32:05.303Z,102849.84
2022-08-09T18:34:34.938Z,102852.09
2022-08-09T18:37:03.044Z,102852.31
2022-08-09T18:39:32.455Z,102836.41
2022-08-09T18:42:01.703Z,102843.47
2022-08-09T18:44:28.323Z,102842.31
2022-08-09T18:47:06.237Z,102843.09
2022-08-09T18:49:43.723Z,102837.28
2022-08-09T18:52:15.747Z,102840.00
2022-08-09T18:54:52.502Z,102837.66
2022-08-09T18:57:19.812Z,102843.38
2022-08-09T18:59:54.524Z,102849.53
2022-08-09T19:02:30.765Z,102848.13
2022-08-09T19:05:03.969Z,102846.56
2022-08-09T19:07:43.232Z,102853.72
2022-08-09T19:10:26.567Z,102851.69
2022-08-09T19:12:59.241Z,102854.34
2022-08-09T19:15:39.427Z,102856.41
2022-08-09T19:18:06.225Z,102852.56
2022-08-09T19:20:43.772Z,102851.16
2022-08-09T19:23:16.491Z,102859.09
2022-08-09T19:26:01.955Z,102862.56
2022-08-09T19:28:29.984Z,102863.78
2022-08-09T19:30:57.811Z,102864.59
2022-08-09T19:33:24.303Z,102862.56
2022-08-09T19:35:58.454Z,102868.28
2022-08-09T19:38:26.380Z,102858.91
2022-08-09T19:40:53.855Z,102861.78
2022-08-09T19:44:00.831Z,102873.34
2022-08-09T19:46:08.509Z,102874.97
2022-08-09T19:49:00.421Z,102880.06
2022-08-09T19:51:27.948Z,102887.59
2022-08-09T19:53:58.005Z,102887.56
2022-08-09T19:56:29.382Z,102890.81
2022-08-09T19:59:40.548Z,102890.59
2022-08-09T20:01:53.070Z,102888.13
2022-08-09T20:04:36.397Z,102898.09
2022-08-09T20:07:06.239Z,102901.34
2022-08-09T20:09:44.360Z,102901.50
2022-08-09T20:12:27.023Z,102909.00
2022-08-09T20:15:02.082Z,102906.75
2022-08-09T20:17:41.362Z,102915.47
2022-08-09T20:20:15.035Z,102909.94
2022-08-09T20:22:44.727Z,102915.81
2022-08-09T20:25:13.072Z,102908.47
2022-08-09T20:27:48.998Z,102910.31
2022-08-09T20:30:17.903Z,102909.91
2022-08-09T20:32:52.057Z,102912.50
2022-08-09T20:35:19.625Z,102911.22
2022-08-09T20:38:22.135Z,102909.59
2022-08-09T20:40:32.595Z,102904.09
2022-08-09T20:43:18.223Z,102911.56
2022-08-09T20:45:56.672Z,102918.72
2022-08-09T20:48:30.839Z,102914.28
2022-08-09T20:50:58.458Z,102917.66
2022-08-09T20:53:35.384Z,102911.53
2022-08-09T20:56:07.199Z,102920.03
2022-08-09T20:58:35.864Z,102924.41
2022-08-09T21:01:33.698Z,102925.56
2022-08-09T21:05:49.831Z,102924.88
2022-08-09T21:06:41.425Z,102927.47
2022-08-09T21:09:13.973Z,102918.16
2022-08-09T21:14:30.772Z,102932.16
2022-08-09T21:16:59.306Z,102925.41
2022-08-09T21:20:19.619Z,102930.03
2022-08-09T21:22:36.286Z,102928.25
2022-08-09T21:25:17.807Z,102935.25
2022-08-09T21:27:50.860Z,102919.91
2022-08-09T21:30:18.945Z,102922.13
2022-08-09T21:32:48.504Z,102920.22
2022-08-09T21:35:14.952Z,102926.41
2022-08-09T21:37:58.804Z,102919.88
2022-08-09T21:40:30.142Z,102917.63
2022-08-09T21:42:58.663Z,102921.59
2022-08-09T21:45:25.898Z,102916.78
2022-08-09T21:47:52.632Z,102914.09
2022-08-09T21:50:35.793Z,102925.06
2022-08-09T21:53:06.470Z,102918.53
2022-08-09T21:55:46.531Z,102923.97
2022-08-09T21:58:13.529Z,102911.19
2022-08-09T22:00:41.066Z,102917.84
2022-08-09T22:03:19.249Z,102915.66
2022-08-09T22:05:51.884Z,102925.09
2022-08-09T22:08:18.406Z,102919.56
2022-08-09T22:11:00.365Z,102915.47
2022-08-09T22:13:35.704Z,102924.41
2022-08-09T22:16:08.313Z,102928.28
2022-08-09T22:18:37.091Z,102918.19
2022-08-09T22:21:10.046Z,102918.88
2022-08-09T22:23:58.957Z,102925.91
2022-08-09T22:26:35.449Z,102927.28
2022-08-09T22:29:07.529Z,102922.03
2022-08-09T22:31:36.039Z,102921.41
2022-08-09T22:34:02.690Z,102920.56
2022-08-09T22:36:29.112Z,102917.66
2022-08-09T22:39:46.774Z,102921.31
2022-08-09T22:41:58.842Z,102925.19
2022-08-09T22:44:25.817Z,102920.09
2022-08-09T22:48:16.014Z,102927.97
2022-08-09T22:49:47.059Z,102922.38
2022-08-09T22:52:13.720Z,102923.34
2022-08-09T22:54:42.246Z,102917.78
2022-08-09T22:57:11.876Z,102926.00
2022-08-09T22:59:55.833Z,102928.28
2022-08-09T23:02:25.079Z,102926.28
2022-08-09T23:04:53.863Z,102926.47
2022-08-09T23:08:22.493Z,102933.06
2022-08-09T23:10:26.542Z,102932.59
2022-08-09T23:12:52.944Z,102928.97
2022-08-09T23:15:19.359Z,102930.16
2022-08-09T23:17:45.725Z,102931.94
2022-08-09T23:20:12.143Z,102930.66
2022-08-09T23:22:38.594Z,102930.69
2022-08-09T23:25:06.238Z,102927.56
2022-08-09T23:27:33.415Z,102927.09
2022-08-09T23:30:00.137Z,102930.56
2022-08-09T23:32:26.689Z,102934.69
2022-08-09T23:34:53.123Z,102934.25
2022-08-09T23:37:21.509Z,102930.47
2022-08-09T23:40:01.579Z,102933.97
2022-08-09T23:42:28.305Z,102917.78
2022-08-09T23:44:54.771Z,102915.19
2022-08-09T23:47:21.256Z,102919.81
2022-08-09T23:49:47.652Z,102925.50
2022-08-09T23:52:14.147Z,102923.69
2022-08-09T23:54:44.408Z,102923.72
2022-08-09T23:57:12.056Z,102914.22
2022-08-09T23:59:59.525Z,102912.75
